Time;durP1;ratioP1;P1;durP2;ratioP2;P2;SDS_P1;SDS_P2;PMS_P1;PMS_P2;Temp;Humidity;BMP_temperature;BMP_pressure;BME280_temperature;BME280_humidity;BME280_pressure;Samples;Min_cycle;Max_cycle;Signal;HPM_P1;HPM_P2
2022/08/25 00:00:30;;;;;;;4.90;1.90;;;;;;;21.27;55.16;101816.91;2048005;28;26190;-66
2022/08/25 00:01:39;;;;;;;3.53;1.60;;;;;;;21.29;55.26;101801.34;2047798;28;27801;-65
2022/08/25 00:02:41;;;;;;;4.25;1.45;;;;;;;21.27;55.77;101811.47;2047586;28;28262;-66
2022/08/25 00:03:44;;;;;;;4.35;1.85;;;;;;;21.24;55.83;101811.63;2047959;28;24200;-66
2022/08/25 00:04:46;;;;;;;3.15;1.70;;;;;;;21.24;55.69;101799.84;2048060;28;23200;-66
2022/08/25 00:05:56;;;;;;;4.55;1.58;;;;;;;21.24;55.67;101813.47;2047676;28;31687;-66
2022/08/25 00:06:58;;;;;;;5.40;2.00;;;;;;;21.23;55.84;101803.53;2047402;28;34336;-65
2022/08/25 00:08:05;;;;;;;4.25;2.15;;;;;;;21.22;55.88;101808.09;2047950;28;30036;-65
2022/08/25 00:09:09;;;;;;;4.07;1.55;;;;;;;21.23;55.99;101807.16;2047480;28;28549;-66
2022/08/25 00:10:11;;;;;;;2.75;1.60;;;;;;;21.22;55.85;101807.22;2047454;28;33843;-65
2022/08/25 00:11:21;;;;;;;3.00;1.65;;;;;;;21.21;55.57;101805.44;2047711;28;26127;-65
2022/08/25 00:12:22;;;;;;;3.25;1.73;;;;;;;21.19;55.95;101808.25;2047620;28;28227;-65
2022/08/25 00:13:24;;;;;;;3.63;1.77;;;;;;;21.19;55.73;101802.81;2047985;28;23165;-65
2022/08/25 00:14:32;;;;;;;6.22;1.90;;;;;;;21.18;56.12;101806.50;2047609;28;31438;-65
2022/08/25 00:15:34;;;;;;;6.28;1.70;;;;;;;21.17;56.17;101799.28;2048313;28;20849;-65
2022/08/25 00:16:37;;;;;;;3.15;1.70;;;;;;;21.15;56.12;101802.09;2047337;28;36860;-65
2022/08/25 00:17:39;;;;;;;5.13;1.80;;;;;;;21.14;55.80;101804.94;2047797;28;29117;-65
2022/08/25 00:18:45;;;;;;;2.85;1.52;;;;;;;21.11;55.95;101794.19;2048107;28;20076;-65
2022/08/25 00:19:47;;;;;;;5.70;1.80;;;;;;;21.11;56.02;101805.06;2054715;28;31561;-65
2022/08/25 00:20:49;;;;;;;8.88;1.75;;;;;;;21.11;56.04;101796.91;2054643;28;20667;-65
2022/08/25 00:21:51;;;;;;;4.18;1.80;;;;;;;21.10;56.50;101801.47;2047406;28;30218;-65
2022/08/25 00:22:54;;;;;;;3.53;1.60;;;;;;;21.06;55.86;101799.00;2047506;28;32370;-65
2022/08/25 00:24:01;;;;;;;6.05;1.50;;;;;;;21.05;56.13;101799.94;2047974;28;20042;-65
2022/08/25 00:25:03;;;;;;;3.80;1.95;;;;;;;21.05;56.52;101797.22;2047084;28;32566;-65
2022/08/25 00:26:08;;;;;;;2.97;1.73;;;;;;;21.04;57.19;101801.78;2047412;28;36866;-65
2022/08/25 00:27:11;;;;;;;5.60;2.00;;;;;;;21.01;56.85;101799.22;2048289;28;24698;-65
2022/08/25 00:28:15;;;;;;;5.45;1.50;;;;;;;21.00;56.38;101796.56;2047145;28;35847;-65
2022/08/25 00:29:17;;;;;;;5.95;1.80;;;;;;;20.96;56.73;101802.22;2047814;28;21062;-65
2022/08/25 00:30:20;;;;;;;5.30;1.70;;;;;;;20.94;57.24;101801.41;2047472;28;31274;-65
2022/08/25 00:31:22;;;;;;;3.40;2.17;;;;;;;20.92;57.36;101805.16;2047499;28;24595;-64
2022/08/25 00:32:27;;;;;;;4.55;1.92;;;;;;;20.91;56.95;101798.84;2047513;28;29196;-65
2022/08/25 00:33:30;;;;;;;5.40;2.00;;;;;;;20.91;56.91;101800.69;2047276;28;31891;-65
2022/08/25 00:34:36;;;;;;;4.25;1.92;;;;;;;20.86;57.04;101795.47;2047521;28;28046;-65
2022/08/25 00:35:41;;;;;;;3.60;1.75;;;;;;;20.81;56.84;101797.56;2047791;28;23628;-66
2022/08/25 00:36:44;;;;;;;2.72;1.63;;;;;;;20.80;57.82;101801.25;2046816;28;34826;-65
2022/08/25 00:37:45;;;;;;;2.97;1.80;;;;;;;20.78;57.15;101797.72;2047709;28;24018;-65
2022/08/25 00:38:50;;;;;;;4.65;2.03;;;;;;;20.78;57.56;101801.34;2047657;28;24771;-65
2022/08/25 00:39:53;;;;;;;4.30;1.70;;;;;;;20.76;57.44;101799.63;2047409;28;26239;-65
2022/08/25 00:41:04;;;;;;;2.88;1.60;;;;;;;20.72;57.96;101795.31;2047803;28;20036;-65
2022/08/25 00:42:08;;;;;;;6.25;2.10;;;;;;;20.70;57.59;101800.84;2047360;28;30972;-65
2022/08/25 00:43:12;;;;;;;3.58;1.70;;;;;;;20.70;58.07;101797.25;2047450;28;26311;-66
2022/08/25 00:44:17;;;;;;;6.78;1.88;;;;;;;20.66;58.21;101801.97;2047416;28;32939;-65
2022/08/25 00:45:19;;;;;;;3.70;2.03;;;;;;;20.64;58.00;101794.81;2054658;28;31075;-65
2022/08/25 00:46:35;;;;;;;3.08;2.30;;;;;;;20.62;58.06;101792.22;2054018;28;28605;-65
2022/08/25 00:47:40;;;;;;;2.22;1.80;;;;;;;20.60;59.05;101800.41;2047332;28;26755;-65
2022/08/25 00:48:49;;;;;;;3.08;1.88;;;;;;;20.58;58.92;101799.63;2047307;28;25021;-65
2022/08/25 00:49:58;;;;;;;2.73;1.77;;;;;;;20.57;58.66;101802.41;2047334;28;40537;-65
2022/08/25 00:51:04;;;;;;;4.50;2.13;;;;;;;20.56;58.36;101797.91;2055389;28;28559;-65
2022/08/25 00:52:21;;;;;;;6.32;1.85;;;;;;;20.53;58.52;101793.53;2046968;28;23487;-65
2022/08/25 00:53:23;;;;;;;4.07;2.00;;;;;;;20.51;59.20;101794.53;2046739;28;32620;-65
2022/08/25 00:54:40;;;;;;;3.78;2.08;;;;;;;20.50;58.73;101799.13;2047362;28;33818;-65
2022/08/25 00:55:42;;;;;;;4.38;1.95;;;;;;;20.46;59.68;101800.25;2054452;28;30921;-65
2022/08/25 00:56:45;;;;;;;6.78;2.78;;;;;;;20.47;59.01;101799.25;2052623;28;37952;-65
2022/08/25 00:57:59;;;;;;;3.92;2.15;;;;;;;20.44;59.26;101802.16;2047498;28;29910;-65
2022/08/25 00:59:03;;;;;;;4.15;2.00;;;;;;;20.42;59.25;101804.06;2047782;28;26073;-65
2022/08/25 01:00:32;;;;;;;6.35;2.28;;;;;;;20.40;59.13;101798.72;2055319;28;20043;-65
2022/08/25 01:01:35;;;;;;;3.33;2.10;;;;;;;20.37;59.88;101803.44;2051052;28;28017;-65
2022/08/25 01:02:38;;;;;;;4.50;2.15;;;;;;;20.39;59.83;101805.09;2046989;28;20083;-65
2022/08/25 01:03:40;;;;;;;5.07;2.25;;;;;;;20.38;59.53;101808.75;2046675;28;25709;-65
2022/08/25 01:04:45;;;;;;;4.05;2.20;;;;;;;20.37;59.85;101811.59;2047324;28;32693;-65
2022/08/25 01:05:49;;;;;;;4.95;2.20;;;;;;;20.37;59.98;101809.75;2047379;28;27534;-65
2022/08/25 01:06:52;;;;;;;5.32;2.28;;;;;;;20.37;59.92;101808.88;2054430;28;31130;-65
2022/08/25 01:07:56;;;;;;;5.22;2.10;;;;;;;20.36;59.55;101810.69;2054495;28;28190;-65
2022/08/25 01:08:59;;;;;;;5.25;2.10;;;;;;;20.33;60.17;101804.53;2055148;28;25156;-65
2022/08/25 01:10:06;;;;;;;3.80;2.30;;;;;;;20.32;60.07;101810.94;2053963;28;30675;-65
2022/08/25 01:11:10;;;;;;;5.72;2.40;;;;;;;20.30;60.09;101807.41;2048176;28;20944;-65
2022/08/25 01:12:13;;;;;;;2.88;2.05;;;;;;;20.28;60.07;101809.31;2053771;28;36652;-65
2022/08/25 01:13:44;;;;;;;3.10;2.33;;;;;;;20.26;60.15;101811.22;2053783;28;37122;-65
2022/08/25 01:14:47;;;;;;;3.38;1.80;;;;;;;20.23;60.48;101806.84;2045408;28;33797;-65
2022/08/25 01:15:53;;;;;;;3.15;2.30;;;;;;;20.24;60.69;101813.13;2054811;28;23863;-65
2022/08/25 01:16:56;;;;;;;4.03;2.30;;;;;;;20.20;60.34;101806.97;2047385;28;20050;-65
2022/08/25 01:18:03;;;;;;;5.50;2.20;;;;;;;20.19;60.77;101807.94;2048260;28;20087;-65
2022/08/25 01:19:09;;;;;;;3.70;2.58;;;;;;;20.17;61.06;101810.75;2048659;28;24799;-65
2022/08/25 01:20:12;;;;;;;3.88;2.05;;;;;;;20.14;60.88;101802.72;2048717;28;29416;-65
2022/08/25 01:21:17;;;;;;;2.88;1.88;;;;;;;20.12;61.45;101807.38;2048571;28;32061;-65
2022/08/25 01:22:19;;;;;;;6.07;2.40;;;;;;;20.12;61.24;101807.38;2048774;28;29480;-65
2022/08/25 01:23:22;;;;;;;4.88;2.20;;;;;;;20.09;60.90;101807.50;2048392;28;32656;-65
2022/08/25 01:24:58;;;;;;;5.35;1.88;;;;;;;20.06;61.55;101815.81;2048653;28;29271;-65
2022/08/25 01:26:08;;;;;;;3.10;1.80;;;;;;;20.05;61.37;101805.91;2056154;28;27737;-65
2022/08/25 01:27:10;;;;;;;5.68;2.35;;;;;;;20.02;61.51;101808.75;2053062;28;28025;-63
2022/08/25 01:28:12;;;;;;;6.40;2.50;;;;;;;20.00;61.13;101810.69;2048945;28;20887;-65
2022/08/25 01:29:19;;;;;;;3.47;2.22;;;;;;;19.97;61.62;101814.44;2049056;28;20075;-64
2022/08/25 01:30:23;;;;;;;4.47;2.30;;;;;;;19.97;61.77;101810.81;2049200;28;22702;-65
2022/08/25 01:31:26;;;;;;;3.22;2.30;;;;;;;19.95;61.55;101812.72;2056138;28;25329;-64
2022/08/25 01:32:33;;;;;;;4.53;2.30;;;;;;;19.96;61.80;101812.66;2055016;28;38248;-65
2022/08/25 01:33:35;;;;;;;4.25;2.42;;;;;;;19.98;62.01;101809.88;2048595;28;28378;-65
2022/08/25 01:34:40;;;;;;;6.32;2.35;;;;;;;19.95;61.47;101812.72;2048850;28;23827;-65
2022/08/25 01:35:43;;;;;;;3.83;2.40;;;;;;;19.93;62.42;101810.09;2048369;28;40156;-65
2022/08/25 01:36:46;;;;;;;4.63;2.22;;;;;;;19.92;62.02;101812.88;2048597;28;30059;-65
2022/08/25 01:37:48;;;;;;;4.50;2.30;;;;;;;19.90;62.23;101812.06;2049112;28;29558;-65
2022/08/25 01:38:51;;;;;;;7.25;2.58;;;;;;;19.89;62.67;101819.34;2048512;28;33524;-65
2022/08/25 01:39:53;;;;;;;5.60;2.67;;;;;;;19.87;62.20;101813.13;2048229;28;20182;-65
2022/08/25 01:40:55;;;;;;;6.18;2.38;;;;;;;19.86;61.86;101807.75;2047816;28;33817;-65
2022/08/25 01:42:13;;;;;;;6.40;2.63;;;;;;;19.84;62.62;101808.69;2048284;28;31522;-65
2022/08/25 01:43:16;;;;;;;5.43;2.75;;;;;;;19.83;62.84;101815.09;2048967;28;23902;-65
2022/08/25 01:44:18;;;;;;;6.65;2.30;;;;;;;19.82;62.47;101815.16;2048335;28;30401;-65
2022/08/25 01:45:20;;;;;;;5.28;2.22;;;;;;;19.80;62.77;101814.38;2048874;28;21722;-65
2022/08/25 01:46:22;;;;;;;3.13;2.10;;;;;;;19.78;63.03;101819.00;2047998;28;31244;-65
2022/08/25 01:47:24;;;;;;;5.18;2.63;;;;;;;19.76;62.93;101815.47;2048703;28;29317;-65
2022/08/25 01:48:26;;;;;;;3.05;2.45;;;;;;;19.74;62.59;101815.53;2048204;28;33010;-65
2022/08/25 01:49:28;;;;;;;8.60;2.40;;;;;;;19.71;63.15;101815.66;2048694;28;27566;-65
2022/08/25 01:50:30;;;;;;;6.47;2.50;;;;;;;19.71;63.04;101820.22;2049205;28;20177;-65
2022/08/25 01:51:41;;;;;;;6.43;3.10;;;;;;;19.71;63.55;101822.94;2048463;28;31942;-65
2022/08/25 01:52:55;;;;;;;3.38;2.42;;;;;;;19.69;63.46;101816.69;2048496;28;23786;-65
2022/08/25 01:53:58;;;;;;;5.88;3.00;;;;;;;19.66;63.36;101823.13;2048755;28;20047;-65
2022/08/25 01:55:02;;;;;;;3.58;2.60;;;;;;;19.64;63.45;101819.59;2048711;28;27059;-65
2022/08/25 01:56:13;;;;;;;4.60;2.22;;;;;;;19.62;63.27;101819.66;2049054;28;20174;-65
2022/08/25 01:57:15;;;;;;;4.18;2.63;;;;;;;19.60;63.80;101823.44;2048690;28;31983;-65
2022/08/25 01:58:41;;;;;;;5.15;2.78;;;;;;;19.57;63.96;101824.44;2048900;28;21681;-65
2022/08/25 01:59:43;;;;;;;3.92;2.90;;;;;;;19.55;63.70;101820.03;2048646;28;28328;-65
2022/08/25 02:00:48;;;;;;;4.70;2.40;;;;;;;19.54;64.21;101818.25;2048654;28;26420;-65
2022/08/25 02:01:51;;;;;;;4.68;2.55;;;;;;;19.51;63.94;101819.31;2049095;28;20044;-65
2022/08/25 02:02:53;;;;;;;5.32;2.83;;;;;;;19.49;64.75;101821.22;2048129;28;28148;-65
2022/08/25 02:03:57;;;;;;;4.45;2.67;;;;;;;19.48;64.81;101807.69;2047916;28;29079;-64
2022/08/25 02:04:58;;;;;;;5.65;2.95;;;;;;;19.46;64.38;101811.34;2048388;28;28337;-65
2022/08/25 02:06:00;;;;;;;5.03;2.70;;;;;;;19.45;65.21;101815.03;2048023;28;31216;-64
2022/08/25 02:07:07;;;;;;;4.38;2.70;;;;;;;19.43;64.67;101810.63;2048698;28;20763;-65
2022/08/25 02:08:10;;;;;;;6.20;2.90;;;;;;;19.42;65.33;101811.59;2048326;28;33814;-64
2022/08/25 02:09:15;;;;;;;3.83;2.97;;;;;;;19.40;64.98;101814.38;2048398;28;28244;-65
2022/08/25 02:10:17;;;;;;;3.75;2.47;;;;;;;19.39;65.37;101809.88;2043548;28;29470;-65
2022/08/25 02:11:22;;;;;;;4.43;2.70;;;;;;;19.37;65.23;101811.78;2048343;28;31274;-65
2022/08/25 02:12:24;;;;;;;7.18;2.92;;;;;;;19.35;65.43;101802.81;2048607;28;20046;-65
2022/08/25 02:13:26;;;;;;;3.05;2.75;;;;;;;19.34;65.23;101811.03;2048208;28;29933;-65
2022/08/25 02:14:32;;;;;;;3.97;2.42;;;;;;;19.31;65.34;101806.66;2048425;28;34211;-65
2022/08/25 02:15:34;;;;;;;4.05;2.63;;;;;;;19.30;65.71;101809.44;2048531;28;31269;-65
2022/08/25 02:16:38;;;;;;;5.78;2.55;;;;;;;19.27;65.52;101814.06;2048467;28;26807;-65
2022/08/25 02:17:40;;;;;;;5.47;2.75;;;;;;;19.25;65.74;101815.94;2048714;28;20810;-65
2022/08/25 02:18:45;;;;;;;5.47;3.13;;;;;;;19.27;65.63;101816.75;2048467;28;27594;-65
2022/08/25 02:19:46;;;;;;;4.55;2.67;;;;;;;19.25;65.82;101812.34;2048498;28;25668;-65
2022/08/25 02:20:48;;;;;;;4.45;2.80;;;;;;;19.23;66.11;101811.53;2048738;28;23199;-65
2022/08/25 02:21:52;;;;;;;5.82;3.08;;;;;;;19.23;65.86;101815.13;2048765;28;20047;-65
2022/08/25 02:22:55;;;;;;;5.82;3.00;;;;;;;19.24;65.99;101810.59;2055788;28;30746;-65
2022/08/25 02:23:58;;;;;;;7.63;3.05;;;;;;;19.24;66.17;101810.59;2055887;28;29766;-65
2022/08/25 02:25:00;;;;;;;5.60;2.90;;;;;;;19.23;66.10;101811.53;2054723;28;34735;-65
2022/08/25 02:26:03;;;;;;;6.03;3.25;;;;;;;19.24;66.29;101805.16;2048606;28;25035;-65
2022/08/25 02:27:07;;;;;;;7.07;2.75;;;;;;;19.23;66.11;101811.53;2048798;28;20075;-65
2022/08/25 02:28:09;;;;;;;6.28;2.72;;;;;;;19.23;66.24;101806.09;2048411;28;20453;-65
2022/08/25 02:29:11;;;;;;;5.45;3.05;;;;;;;19.22;66.14;101809.75;2048361;28;26196;-65
2022/08/25 02:30:16;;;;;;;7.93;3.08;;;;;;;19.21;66.60;101805.28;2055540;28;30368;-63
2022/08/25 02:31:21;;;;;;;7.20;2.90;;;;;;;19.21;66.61;101802.56;2054394;28;32855;-66
2022/08/25 02:32:23;;;;;;;4.55;2.90;;;;;;;19.17;66.49;101803.69;2048474;28;20039;-65
2022/08/25 02:33:25;;;;;;;6.03;3.17;;;;;;;19.17;66.44;101800.97;2048319;28;27499;-65
2022/08/25 02:34:27;;;;;;;5.40;2.85;;;;;;;19.16;66.79;101807.31;2048704;28;31234;-65
2022/08/25 02:35:29;;;;;;;8.45;3.63;;;;;;;19.16;66.72;101807.31;2048078;28;32324;-66
2022/08/25 02:36:31;;;;;;;6.47;3.65;;;;;;;19.14;66.69;101804.69;2048070;28;22719;-65
2022/08/25 02:37:35;;;;;;;7.53;3.42;;;;;;;19.15;66.78;101805.56;2047957;28;31746;-65
2022/08/25 02:38:39;;;;;;;8.82;3.47;;;;;;;19.13;67.10;101804.75;2048717;28;20069;-66
2022/08/25 02:39:41;;;;;;;5.60;3.15;;;;;;;19.11;66.56;101803.94;2055695;28;21287;-65
2022/08/25 02:40:46;;;;;;;6.35;3.20;;;;;;;19.11;67.06;101804.81;2047702;28;20047;-65
2022/08/25 02:41:49;;;;;;;7.20;3.17;;;;;;;19.09;66.91;101812.13;2048551;28;20044;-65
2022/08/25 02:42:54;;;;;;;7.53;3.80;;;;;;;19.07;67.43;101803.19;2048308;28;27309;-65
2022/08/25 02:43:59;;;;;;;7.13;3.10;;;;;;;19.04;66.95;101820.50;2048455;28;30811;-65
2022/08/25 02:45:02;;;;;;;7.38;3.17;;;;;;;19.04;67.17;101806.03;2047718;28;28534;-65
2022/08/25 02:46:04;;;;;;;7.07;3.28;;;;;;;19.02;67.25;101805.22;2048410;28;20888;-65
2022/08/25 02:47:07;;;;;;;3.78;3.38;;;;;;;19.02;67.14;101806.13;2048819;28;20039;-65
2022/08/25 02:48:08;;;;;;;6.13;3.00;;;;;;;19.00;67.54;101808.00;2048862;28;21077;-65
2022/08/25 02:49:12;;;;;;;6.07;3.30;;;;;;;18.99;67.81;101814.41;2047880;28;37143;-65
2022/08/25 02:50:16;;;;;;;6.78;3.28;;;;;;;18.98;67.43;101809.91;2048164;28;29437;-65
2022/08/25 02:51:23;;;;;;;5.85;3.40;;;;;;;18.96;67.55;101809.09;2048755;28;20032;-66
2022/08/25 02:52:25;;;;;;;7.18;3.13;;;;;;;18.96;67.57;101813.66;2047854;28;34891;-65
2022/08/25 02:53:29;;;;;;;4.57;3.20;;;;;;;18.94;68.01;101810.13;2047680;28;39958;-65
2022/08/25 02:54:30;;;;;;;10.02;3.70;;;;;;;18.92;68.19;101809.31;2047900;28;23347;-65
2022/08/25 02:55:32;;;;;;;6.63;3.22;;;;;;;18.91;67.94;101813.84;2047559;28;34297;-65
2022/08/25 02:56:37;;;;;;;5.13;3.25;;;;;;;18.88;67.83;101820.31;2048045;28;20051;-64
2022/08/25 02:57:42;;;;;;;4.95;3.42;;;;;;;18.86;68.17;101815.88;2047916;28;31923;-65
2022/08/25 02:58:45;;;;;;;9.43;3.40;;;;;;;18.84;68.19;101810.53;2047866;28;23093;-65
2022/08/25 02:59:50;;;;;;;5.20;3.45;;;;;;;18.84;68.01;101815.97;2048601;28;20943;-65
2022/08/25 03:00:52;;;;;;;5.55;3.50;;;;;;;18.84;68.05;101815.06;2047595;28;35242;-65
2022/08/25 03:01:54;;;;;;;7.53;3.50;;;;;;;18.82;68.47;101822.38;2048291;28;29054;-65
2022/08/25 03:02:56;;;;;;;8.13;3.47;;;;;;;18.82;68.26;101820.53;2048403;28;24590;-65
2022/08/25 03:04:01;;;;;;;7.25;3.03;;;;;;;18.81;68.57;101817.91;2048336;28;24539;-65
2022/08/25 03:05:07;;;;;;;5.57;3.30;;;;;;;18.80;68.19;101813.41;2048720;28;20055;-65
2022/08/25 03:06:12;;;;;;;6.28;3.35;;;;;;;18.80;68.64;101813.41;2047870;28;28696;-65
2022/08/25 03:07:16;;;;;;;7.47;3.65;;;;;;;18.78;68.49;101818.91;2048592;28;20075;-65
2022/08/25 03:08:18;;;;;;;10.07;4.50;;;;;;;18.79;68.89;101814.34;2047587;28;31809;-65
2022/08/25 03:09:20;;;;;;;4.95;3.42;;;;;;;18.75;69.31;101815.44;2048313;28;32170;-65
2022/08/25 03:10:24;;;;;;;6.70;3.33;;;;;;;18.73;68.90;101810.06;2048137;28;20075;-65
2022/08/25 03:11:26;;;;;;;7.40;4.00;;;;;;;18.70;68.89;101813.81;2047829;28;29716;-66
2022/08/25 03:12:28;;;;;;;9.63;3.80;;;;;;;18.69;69.39;101811.16;2048315;28;24145;-65
2022/08/25 03:13:31;;;;;;;7.15;3.42;;;;;;;18.67;69.03;101810.34;2048156;28;24011;-65
2022/08/25 03:14:32;;;;;;;8.35;3.75;;;;;;;18.65;69.79;101810.41;2048257;28;27478;-65
2022/08/25 03:15:36;;;;;;;8.30;3.58;;;;;;;18.64;69.82;101805.91;2048381;28;20082;-65
2022/08/25 03:16:39;;;;;;;9.55;3.45;;;;;;;18.62;69.52;101807.81;2046788;28;24000;-66
2022/08/25 03:17:48;;;;;;;8.45;4.15;;;;;;;18.61;69.62;101808.78;2048043;28;27738;-65
2022/08/25 03:18:49;;;;;;;10.38;3.90;;;;;;;18.62;70.09;101812.38;2048113;28;31033;-64
2022/08/25 03:19:51;;;;;;;7.20;3.63;;;;;;;18.59;69.71;101805.25;2047788;28;28523;-65
2022/08/25 03:20:53;;;;;;;6.22;3.70;;;;;;;18.56;70.09;101802.66;2047291;28;38541;-65
2022/08/25 03:21:58;;;;;;;6.13;4.00;;;;;;;18.58;70.27;101806.19;2047973;28;28499;-65
2022/08/25 03:23:05;;;;;;;11.38;4.15;;;;;;;18.55;70.01;101805.44;2047778;28;32100;-65
2022/08/25 03:24:07;;;;;;;9.02;3.90;;;;;;;18.55;70.05;101803.59;2048004;28;28897;-65
2022/08/25 03:27:52;;;;;;;7.30;4.32;;;;;;;18.51;70.40;101799.25;2052924;28;29810;-65
2022/08/25 03:28:57;;;;;;;8.63;4.22;;;;;;;18.49;70.24;101791.19;2055051;28;31256;-63
2022/08/25 03:30:02;;;;;;;5.80;4.13;;;;;;;18.50;70.53;101802.91;2054125;28;26928;-65
2022/08/25 03:31:04;;;;;;;11.75;4.45;;;;;;;18.49;70.54;101799.31;2048231;28;27972;-66
2022/08/25 03:32:06;;;;;;;6.32;4.32;;;;;;;18.52;70.40;101798.34;2055591;28;20039;-65
2022/08/25 03:33:08;;;;;;;5.93;3.70;;;;;;;18.51;70.30;101797.44;2055000;28;25049;-65
2022/08/25 03:34:13;;;;;;;4.93;4.03;;;;;;;18.50;70.26;101792.06;2047798;28;31989;-65
2022/08/25 03:35:15;;;;;;;5.93;4.25;;;;;;;18.48;70.67;101786.72;2055144;28;28633;-65
2022/08/25 03:36:16;;;;;;;7.38;4.38;;;;;;;18.47;70.22;101794.94;2055159;28;29086;-65
2022/08/25 03:37:18;;;;;;;6.53;4.05;;;;;;;18.45;71.05;101794.13;2048040;28;20727;-65
2022/08/25 03:38:22;;;;;;;8.90;4.00;;;;;;;18.43;71.13;101791.47;2047790;28;28645;-65
2022/08/25 03:39:25;;;;;;;8.73;4.53;;;;;;;18.46;70.72;101796.72;2055094;28;24308;-65
2022/08/25 03:40:27;;;;;;;7.30;4.30;;;;;;;18.47;71.13;101794.94;2054187;28;24236;-65
2022/08/25 03:41:31;;;;;;;7.43;4.35;;;;;;;18.45;71.05;101788.69;2041801;28;20048;-65
2022/08/25 03:42:34;;;;;;;8.35;4.30;;;;;;;18.45;71.04;101794.13;2047894;28;25796;-65
2022/08/25 03:43:35;;;;;;;7.20;4.40;;;;;;;18.46;70.97;101785.88;2047900;28;28951;-65
2022/08/25 03:44:37;;;;;;;5.60;4.10;;;;;;;18.44;71.29;101784.19;2047561;28;39308;-65
2022/08/25 03:45:41;;;;;;;7.13;4.40;;;;;;;18.46;71.17;101793.16;2047676;28;26231;-65
2022/08/25 03:46:47;;;;;;;6.65;4.28;;;;;;;18.45;71.09;101788.69;2047439;28;33051;-65
2022/08/25 03:47:51;;;;;;;5.70;4.30;;;;;;;18.43;71.50;101790.56;2048054;28;31447;-65
2022/08/25 03:48:53;;;;;;;5.80;4.43;;;;;;;18.43;71.56;101795.97;2055163;28;24443;-65
2022/08/25 03:49:55;;;;;;;6.25;3.90;;;;;;;18.39;72.02;101789.81;2054474;28;37544;-65
2022/08/25 03:50:57;;;;;;;4.55;3.95;;;;;;;18.39;71.89;101787.09;2047697;28;33580;-65
2022/08/25 03:51:58;;;;;;;5.72;4.20;;;;;;;18.40;71.99;101790.72;2047595;28;24878;-65
2022/08/25 03:53:01;;;;;;;8.27;4.50;;;;;;;18.39;71.65;101788.94;2047955;28;23153;-65
2022/08/25 03:54:04;;;;;;;6.28;4.57;;;;;;;18.38;71.93;101788.06;2088978;23;31986;-65
2022/08/25 03:55:10;;;;;;;6.82;4.60;;;;;;;18.39;72.12;101794.34;2065530;28;20054;-66
2022/08/25 03:56:12;;;;;;;7.28;4.32;;;;;;;18.37;72.04;101796.25;2063029;28;36483;-66
2022/08/25 03:57:14;;;;;;;7.93;4.88;;;;;;;18.37;71.92;101783.56;2063594;28;27543;-66
2022/08/25 03:58:16;;;;;;;7.47;4.90;;;;;;;18.37;72.07;101788.13;2063975;28;27858;-66
2022/08/25 03:59:19;;;;;;;6.60;5.10;;;;;;;18.36;72.30;101789.06;2063493;28;31270;-66
2022/08/25 04:00:22;;;;;;;6.00;4.47;;;;;;;18.35;72.15;101790.88;2063963;28;27903;-66
2022/08/25 04:01:24;;;;;;;5.50;4.60;;;;;;;18.35;72.68;101787.31;2063176;28;30898;-66
2022/08/25 04:02:26;;;;;;;10.63;5.20;;;;;;;18.33;72.29;101794.63;2063581;28;31724;-66
2022/08/25 04:03:28;;;;;;;8.57;4.78;;;;;;;18.32;72.87;101791.00;2063441;28;32435;-66
2022/08/25 04:04:31;;;;;;;8.13;4.88;;;;;;;18.29;72.77;101791.16;2063812;28;29098;-66
2022/08/25 04:05:33;;;;;;;8.32;5.25;;;;;;;18.28;72.87;101790.25;2063072;28;40411;-66
2022/08/25 04:06:38;;;;;;;8.05;4.95;;;;;;;18.27;73.29;101785.81;2064164;28;20031;-66
2022/08/25 04:07:40;;;;;;;9.75;5.40;;;;;;;18.28;73.08;101786.66;2063096;28;29064;-66
2022/08/25 04:08:42;;;;;;;9.90;5.05;;;;;;;18.26;73.40;101789.44;2063417;28;25432;-66
2022/08/25 04:09:46;;;;;;;5.45;4.80;;;;;;;18.23;72.83;101780.56;2063968;28;20050;-66
2022/08/25 04:10:48;;;;;;;10.65;5.57;;;;;;;18.22;73.65;101776.09;2062302;28;31031;-66
2022/08/25 04:11:50;;;;;;;10.90;5.55;;;;;;;18.21;73.81;101782.44;2058027;28;27003;-66
2022/08/25 04:12:54;;;;;;;11.02;4.90;;;;;;;18.19;73.99;101779.81;2055204;28;22947;-66
2022/08/25 04:13:58;;;;;;;9.45;5.38;;;;;;;18.18;73.93;101772.63;2054592;28;38946;-66
2022/08/25 04:15:00;;;;;;;7.00;5.10;;;;;;;18.16;74.09;101781.75;2048198;28;20082;-66
2022/08/25 04:16:10;;;;;;;7.88;5.25;;;;;;;18.15;74.27;101791.72;2047548;28;33684;-66
2022/08/25 04:17:14;;;;;;;8.20;5.65;;;;;;;18.15;74.65;101785.44;2055681;28;25330;-66
2022/08/25 04:18:16;;;;;;;6.40;5.20;;;;;;;18.15;74.46;101782.72;2053453;28;30610;-67
2022/08/25 04:19:19;;;;;;;8.93;5.25;;;;;;;18.12;74.51;101784.63;2047370;28;27308;-67
2022/08/25 04:20:21;;;;;;;8.18;5.25;;;;;;;18.11;74.78;101790.09;2055092;28;22727;-66
2022/08/25 04:21:25;;;;;;;10.13;5.40;;;;;;;18.10;74.95;101785.59;2054361;28;40395;-66
2022/08/25 04:22:27;;;;;;;6.97;5.80;;;;;;;18.09;74.56;101783.84;2055073;28;20055;-67
2022/08/25 04:23:29;;;;;;;9.32;5.45;;;;;;;18.10;75.26;101774.75;2047728;28;29021;-66
2022/08/25 04:24:32;;;;;;;9.30;5.75;;;;;;;18.08;75.52;101782.94;2056128;28;25202;-66
2022/08/25 04:25:34;;;;;;;9.07;5.78;;;;;;;18.08;75.54;101780.25;2056030;28;34027;-66
2022/08/25 04:26:42;;;;;;;10.07;5.75;;;;;;;18.06;75.37;101771.28;2055163;28;20178;-67
2022/08/25 04:27:44;;;;;;;10.25;5.57;;;;;;;18.06;76.04;101775.84;2053622;28;35895;-67
2022/08/25 04:28:47;;;;;;;7.72;6.00;;;;;;;18.05;75.94;101774.97;2047697;28;26050;-67
2022/08/25 04:29:49;;;;;;;8.55;6.10;;;;;;;18.05;76.40;101776.78;2054820;28;25074;-67
2022/08/25 04:30:50;;;;;;;9.73;6.15;;;;;;;18.06;76.29;101775.84;2055113;28;20051;-66
2022/08/25 04:31:54;;;;;;;9.93;5.88;;;;;;;18.06;75.90;101774.00;2047707;28;23555;-67
2022/08/25 04:32:55;;;;;;;6.60;5.90;;;;;;;18.07;76.75;101775.78;2047618;28;25454;-67
2022/08/25 04:34:01;;;;;;;9.43;6.15;;;;;;;18.06;76.39;101770.41;2047293;28;30162;-66
2022/08/25 04:35:04;;;;;;;9.38;6.03;;;;;;;18.06;76.65;101773.13;2047705;28;26023;-66
2022/08/25 04:36:13;;;;;;;6.50;5.88;;;;;;;18.07;76.44;101769.47;2055178;28;22722;-66
2022/08/25 04:37:17;;;;;;;9.32;6.60;;;;;;;18.06;76.92;101765.88;2054104;28;20129;-66
2022/08/25 04:38:18;;;;;;;10.90;6.70;;;;;;;18.09;76.55;101759.47;2047657;28;24206;-67
2022/08/25 04:39:25;;;;;;;16.77;7.10;;;;;;;18.10;76.74;101767.50;2047761;28;35209;-66
2022/08/25 04:40:31;;;;;;;8.00;6.22;;;;;;;18.15;76.68;101763.75;2047188;28;20155;-67
2022/08/25 04:41:34;;;;;;;6.97;6.25;;;;;;;18.22;76.22;101763.41;2049877;28;30150;-67
2022/08/25 04:42:36;;;;;;;11.70;6.50;;;;;;;18.30;76.19;101766.69;2054616;28;32462;-66
2022/08/25 04:43:42;;;;;;;12.05;6.75;;;;;;;18.44;75.65;101762.50;2047582;28;23398;-66
2022/08/25 04:44:44;;;;;;;8.07;6.45;;;;;;;18.60;75.11;101760.91;2054648;28;21551;-66
2022/08/25 04:45:45;;;;;;;10.25;6.57;;;;;;;18.78;74.51;101763.75;2055392;28;36010;-65
2022/08/25 04:46:48;;;;;;;7.72;6.50;;;;;;;18.86;74.18;101761.59;2055811;28;21623;-66
2022/08/25 04:47:50;;;;;;;7.75;6.75;;;;;;;19.10;72.89;101758.75;2056103;28;20031;-64
2022/08/25 04:48:59;;;;;;;8.45;6.50;;;;;;;19.28;72.51;101760.63;2055463;28;33462;-66
2022/08/25 04:50:00;;;;;;;9.48;6.80;;;;;;;19.40;71.57;101759.19;2055840;28;26097;-65
2022/08/25 04:51:08;;;;;;;10.75;6.90;;;;;;;19.50;71.39;101757.75;2055336;28;20790;-66
2022/08/25 04:52:10;;;;;;;8.43;6.20;;;;;;;19.71;70.68;101757.72;2054683;28;32798;-66
2022/08/25 04:53:15;;;;;;;9.65;6.68;;;;;;;19.81;70.57;101765.38;2056003;28;20081;-65
2022/08/25 04:54:20;;;;;;;8.80;6.32;;;;;;;19.97;69.91;101762.78;2055426;28;25072;-66
2022/08/25 04:55:24;;;;;;;7.57;6.38;;;;;;;20.18;69.40;101760.81;2055630;28;20181;-66
2022/08/25 04:56:28;;;;;;;9.32;6.60;;;;;;;20.37;68.67;101759.91;2055427;28;26991;-65
2022/08/25 04:57:29;;;;;;;9.43;6.57;;;;;;;20.49;68.07;101761.97;2054855;28;20261;-66
2022/08/25 04:58:32;;;;;;;7.88;6.03;;;;;;;20.53;67.37;101770.84;2055032;28;27790;-65
2022/08/25 04:59:34;;;;;;;8.80;6.63;;;;;;;20.57;67.32;101767.91;2054726;28;37004;-66
2022/08/25 05:00:42;;;;;;;8.25;6.28;;;;;;;20.80;66.29;101768.59;2055718;28;20875;-66